Time;durP1;ratioP1;P1;durP2;ratioP2;P2;SDS_P1;SDS_P2;PMS_P1;PMS_P2;Temp;Humidity;BMP_temperature;BMP_pressure;BME280_temperature;BME280_humidity;BME280_pressure;Samples;Min_cycle;Max_cycle;Signal;HPM_P1;HPM_P2
2023/06/06 00:01:23;;;;;;;2.50;2.13;;;17.30;99.90;;;;;;5093343;28;20600;-59
2023/06/06 00:03:50;;;;;;;2.65;2.28;;;17.20;99.90;;;;;;5094227;28;20609;-59
2023/06/06 00:06:20;;;;;;;2.17;1.98;;;17.20;99.90;;;;;;5094519;28;20227;-59
2023/06/06 00:08:48;;;;;;;2.13;1.92;;;17.10;99.90;;;;;;5094531;28;20224;-60
2023/06/06 00:11:15;;;;;;;4.20;2.33;;;17.00;99.90;;;;;;5093946;28;20253;-60
2023/06/06 00:13:42;;;;;;;2.13;1.90;;;17.00;99.90;;;;;;5093507;28;20295;-61
2023/06/06 00:16:09;;;;;;;2.70;2.05;;;17.00;99.90;;;;;;5093061;28;20227;-61
2023/06/06 00:18:36;;;;;;;3.10;2.30;;;17.00;99.90;;;;;;5091788;28;20243;-60
2023/06/06 00:21:04;;;;;;;2.72;2.05;;;17.00;99.90;;;;;;5091450;28;20204;-60
2023/06/06 00:23:30;;;;;;;2.42;2.20;;;16.90;99.90;;;;;;5091432;28;20208;-59
2023/06/06 00:25:58;;;;;;;2.40;2.20;;;16.90;99.90;;;;;;5091010;28;20216;-59
2023/06/06 00:28:25;;;;;;;5.93;2.33;;;16.90;99.90;;;;;;5091131;28;20653;-59
2023/06/06 00:30:52;;;;;;;2.92;2.33;;;16.90;99.90;;;;;;5091347;28;20227;-60
2023/06/06 00:33:19;;;;;;;2.55;2.35;;;16.80;99.90;;;;;;5091552;28;20208;-60
2023/06/06 00:35:45;;;;;;;2.55;2.25;;;16.80;99.90;;;;;;5090871;28;20644;-59
2023/06/06 00:38:12;;;;;;;2.65;2.45;;;16.80;99.90;;;;;;5091331;28;20208;-60
2023/06/06 00:40:39;;;;;;;2.40;2.20;;;16.70;99.90;;;;;;5091133;28;20210;-60
2023/06/06 00:43:07;;;;;;;2.42;2.10;;;16.70;99.90;;;;;;5091664;28;20200;-60
2023/06/06 00:45:34;;;;;;;2.30;2.10;;;16.70;99.90;;;;;;5091779;28;20250;-60
2023/06/06 00:48:00;;;;;;;3.10;2.47;;;16.70;99.90;;;;;;5090875;28;20207;-60
2023/06/06 00:50:28;;;;;;;3.20;2.20;;;16.70;99.90;;;;;;5091127;28;20426;-60
2023/06/06 00:52:55;;;;;;;4.35;2.67;;;16.60;99.90;;;;;;5091191;28;20291;-60
2023/06/06 00:55:22;;;;;;;4.13;2.40;;;16.60;99.90;;;;;;5091035;28;20228;-60
2023/06/06 00:57:51;;;;;;;2.97;2.50;;;16.60;99.90;;;;;;5090793;28;20303;-59
2023/06/06 01:00:20;;;;;;;2.70;2.50;;;16.60;99.90;;;;;;5090864;28;20226;-59
2023/06/06 01:02:47;;;;;;;3.60;2.45;;;16.60;99.90;;;;;;5090803;28;20646;-59
2023/06/06 01:05:18;;;;;;;2.58;2.25;;;16.50;99.90;;;;;;5091217;28;20705;-59
2023/06/06 01:07:47;;;;;;;2.45;2.25;;;16.40;99.90;;;;;;5090619;28;20291;-60
2023/06/06 01:10:15;;;;;;;3.00;2.45;;;16.40;99.90;;;;;;5091142;28;20200;-59
2023/06/06 01:12:48;;;;;;;5.10;2.50;;;16.30;99.90;;;;;;5091094;28;20208;-60
2023/06/06 01:15:19;;;;;;;3.17;2.72;;;16.30;99.90;;;;;;5099368;22;20323;-65
2023/06/06 01:17:47;;;;;;;4.50;2.35;;;16.20;99.90;;;;;;5082421;28;20204;-64
2023/06/06 01:20:15;;;;;;;2.70;2.50;;;16.10;99.90;;;;;;5090713;28;20257;-65
2023/06/06 01:22:44;;;;;;;2.95;2.33;;;16.10;99.90;;;;;;5091047;28;20211;-64
2023/06/06 01:25:12;;;;;;;2.75;2.45;;;16.10;99.90;;;;;;5090830;28;20311;-64
2023/06/06 01:27:39;;;;;;;2.80;2.20;;;16.00;99.90;;;;;;5091062;28;20233;-65
2023/06/06 01:30:08;;;;;;;3.72;2.60;;;15.90;99.90;;;;;;5091097;28;20311;-65
2023/06/06 01:32:43;;;;;;;3.25;2.63;;;15.80;99.90;;;;;;5094267;28;20257;-65
2023/06/06 01:35:17;;;;;;;2.85;2.50;;;15.70;99.90;;;;;;5094959;28;20312;-65
2023/06/06 01:37:51;;;;;;;2.57;2.37;;;15.70;99.90;;;;;;5094382;28;20669;-64
2023/06/06 01:40:20;;;;;;;5.60;2.40;;;15.70;99.90;;;;;;5094739;28;20558;-64
2023/06/06 01:42:49;;;;;;;2.67;2.47;;;15.60;99.90;;;;;;5094498;28;20681;-64
2023/06/06 01:45:18;;;;;;;4.05;2.78;;;15.50;99.90;;;;;;5094204;28;20259;-65
2023/06/06 01:47:45;;;;;;;3.37;2.73;;;15.50;99.90;;;;;;5094181;28;20295;-65
2023/06/06 01:50:13;;;;;;;3.53;2.70;;;15.40;99.90;;;;;;5094367;28;20208;-64
2023/06/06 01:52:40;;;;;;;5.10;2.40;;;15.30;99.90;;;;;;5094376;28;20287;-64
2023/06/06 01:55:09;;;;;;;3.37;2.70;;;15.20;99.90;;;;;;5094128;28;20497;-65
2023/06/06 01:57:36;;;;;;;3.47;2.93;;;15.20;99.90;;;;;;5093930;28;20209;-65
2023/06/06 02:00:08;;;;;;;3.10;2.80;;;15.20;99.90;;;;;;5093826;28;20705;-65
2023/06/06 02:02:35;;;;;;;5.73;2.83;;;15.10;99.90;;;;;;5094412;28;20204;-65
2023/06/06 02:05:03;;;;;;;3.80;2.53;;;15.10;99.90;;;;;;5093874;28;20227;-65
2023/06/06 02:07:30;;;;;;;2.97;2.67;;;14.90;99.90;;;;;;5093624;28;20743;-65
2023/06/06 02:09:57;;;;;;;2.73;2.53;;;14.80;99.90;;;;;;5094115;28;20208;-65
2023/06/06 02:12:25;;;;;;;4.10;2.97;;;14.70;99.90;;;;;;5093895;28;20212;-64
2023/06/06 02:14:53;;;;;;;2.77;2.43;;;14.70;99.90;;;;;;5093460;28;20232;-65
2023/06/06 02:17:19;;;;;;;2.70;2.50;;;14.70;99.90;;;;;;5093599;28;20258;-64
2023/06/06 02:19:46;;;;;;;3.10;2.80;;;14.60;99.90;;;;;;5093845;28;20645;-64
2023/06/06 02:22:13;;;;;;;5.03;2.83;;;14.60;99.90;;;;;;5094117;28;20212;-64
2023/06/06 02:24:40;;;;;;;3.90;2.63;;;14.60;99.90;;;;;;5093525;28;20239;-64
2023/06/06 02:27:09;;;;;;;3.00;2.70;;;14.50;99.90;;;;;;5093409;28;20208;-64
2023/06/06 02:29:37;;;;;;;3.80;2.63;;;14.50;99.90;;;;;;5093345;28;20204;-64
2023/06/06 02:32:04;;;;;;;3.60;2.90;;;14.40;99.90;;;;;;5093522;28;20713;-64
2023/06/06 02:34:31;;;;;;;4.20;3.20;;;14.40;99.90;;;;;;5093585;28;20204;-64
2023/06/06 02:36:59;;;;;;;3.00;2.73;;;14.40;99.90;;;;;;5093088;28;20277;-64
2023/06/06 02:39:26;;;;;;;2.87;2.60;;;14.30;99.90;;;;;;5093339;28;20621;-64
2023/06/06 02:41:53;;;;;;;3.37;2.77;;;14.40;99.90;;;;;;5093378;28;20207;-64
2023/06/06 02:44:20;;;;;;;4.97;2.90;;;14.40;99.90;;;;;;5093633;28;20205;-64
2023/06/06 02:46:48;;;;;;;4.93;4.43;;;14.40;99.90;;;;;;5093251;28;20321;-64
2023/06/06 02:49:15;;;;;;;4.27;2.90;;;14.30;99.90;;;;;;5093340;28;20216;-64
2023/06/06 02:51:42;;;;;;;3.70;3.20;;;14.30;99.90;;;;;;5093367;28;20200;-64
2023/06/06 02:54:08;;;;;;;4.37;3.33;;;14.30;99.90;;;;;;5092832;28;20226;-64
2023/06/06 02:56:35;;;;;;;3.83;3.40;;;14.20;99.90;;;;;;5092833;28;20604;-65
2023/06/06 02:59:02;;;;;;;4.33;3.73;;;14.20;99.90;;;;;;5093050;28;20216;-63
2023/06/06 03:01:30;;;;;;;7.53;3.80;;;14.20;99.90;;;;;;5092830;28;20204;-64
2023/06/06 03:03:58;;;;;;;6.90;3.40;;;14.10;99.90;;;;;;5092966;28;20247;-63
2023/06/06 03:06:25;;;;;;;4.90;3.20;;;14.00;99.90;;;;;;5092150;28;20281;-63
2023/06/06 03:08:55;;;;;;;4.67;3.40;;;14.00;99.90;;;;;;5092590;28;20211;-64
2023/06/06 03:11:22;;;;;;;3.53;3.20;;;13.90;99.90;;;;;;5092905;28;20215;-64
2023/06/06 03:13:49;;;;;;;3.80;3.40;;;13.90;99.90;;;;;;5092641;28;20236;-63
2023/06/06 03:16:16;;;;;;;6.43;3.70;;;13.80;99.90;;;;;;5092115;28;20322;-63
2023/06/06 03:18:46;;;;;;;4.83;3.67;;;13.90;99.90;;;;;;5092624;28;20208;-64
2023/06/06 03:21:15;;;;;;;3.30;3.00;;;13.70;99.90;;;;;;5092333;28;20212;-63
2023/06/06 03:23:41;;;;;;;3.27;2.97;;;13.70;99.90;;;;;;5092312;28;20716;-63
2023/06/06 03:26:08;;;;;;;3.43;3.10;;;13.80;99.90;;;;;;5092289;28;20227;-63
2023/06/06 03:28:35;;;;;;;3.90;3.40;;;13.80;99.90;;;;;;5092533;28;20208;-64
2023/06/06 03:31:05;;;;;;;3.47;3.17;;;13.80;99.90;;;;;;5092496;28;20592;-64
2023/06/06 03:33:31;;;;;;;3.93;3.40;;;13.90;99.90;;;;;;5092196;28;20204;-63
2023/06/06 03:35:59;;;;;;;3.43;2.87;;;13.90;99.90;;;;;;5092308;28;20224;-64
2023/06/06 03:38:27;;;;;;;4.63;3.57;;;13.90;99.90;;;;;;5092600;28;20224;-64
2023/06/06 03:40:54;;;;;;;3.53;3.23;;;13.80;99.90;;;;;;5092465;28;20211;-64
2023/06/06 03:43:21;;;;;;;7.10;3.20;;;13.80;99.90;;;;;;5092075;28;20208;-66
2023/06/06 03:45:47;;;;;;;8.90;2.90;;;13.90;99.90;;;;;;5091872;28;20637;-64
2023/06/06 03:48:14;;;;;;;3.53;3.23;;;13.90;99.90;;;;;;5091940;28;20208;-64
2023/06/06 03:50:41;;;;;;;3.40;3.10;;;13.80;99.90;;;;;;5092245;28;20582;-64
2023/06/06 03:53:07;;;;;;;3.60;3.10;;;13.80;99.90;;;;;;5091426;28;20204;-64
2023/06/06 03:55:37;;;;;;;3.90;3.13;;;13.80;99.90;;;;;;5091509;28;20231;-64
2023/06/06 03:58:04;;;;;;;5.37;2.83;;;13.70;99.90;;;;;;5092488;28;20212;-64
2023/06/06 04:00:31;;;;;;;6.27;3.17;;;13.70;99.90;;;;;;5091899;28;20564;-64
2023/06/06 04:02:58;;;;;;;3.47;3.17;;;13.60;99.90;;;;;;5091884;28;20590;-64
2023/06/06 04:05:25;;;;;;;3.50;3.20;;;13.80;99.90;;;;;;5091976;28;20609;-63
2023/06/06 04:07:52;;;;;;;4.27;3.10;;;13.80;99.90;;;;;;5091618;28;20253;-63
2023/06/06 04:10:19;;;;;;;6.23;3.00;;;13.90;99.90;;;;;;5091684;28;20266;-64
2023/06/06 04:12:47;;;;;;;3.67;3.37;;;14.00;99.90;;;;;;5091526;28;20692;-63
2023/06/06 04:15:13;;;;;;;3.50;3.20;;;14.10;99.90;;;;;;5091241;28;20228;-64
2023/06/06 04:17:40;;;;;;;6.13;3.53;;;14.20;99.90;;;;;;5091394;28;20216;-64
2023/06/06 04:20:09;;;;;;;3.97;3.27;;;14.30;99.90;;;;;;5091518;28;20600;-63
2023/06/06 04:22:35;;;;;;;3.40;3.10;;;14.40;99.90;;;;;;5091541;28;20212;-64
2023/06/06 04:25:02;;;;;;;4.00;3.20;;;14.50;99.90;;;;;;5091491;28;20662;-64
2023/06/06 04:27:30;;;;;;;4.03;3.30;;;14.60;99.90;;;;;;5091470;28;20204;-64
2023/06/06 04:29:58;;;;;;;3.20;2.90;;;14.70;99.90;;;;;;5091363;28;20204;-64
2023/06/06 04:32:25;;;;;;;6.53;5.50;;;14.90;99.90;;;;;;5091476;28;20207;-64
2023/06/06 04:34:56;;;;;;;6.83;3.13;;;15.00;99.90;;;;;;5091474;28;20588;-64
2023/06/06 04:37:23;;;;;;;5.83;3.33;;;15.10;99.90;;;;;;5092249;28;20228;-63
2023/06/06 04:39:52;;;;;;;4.80;3.20;;;15.20;99.90;;;;;;5092362;28;20204;-63
2023/06/06 04:42:20;;;;;;;4.37;3.60;;;15.40;99.90;;;;;;5092542;28;20215;-63
2023/06/06 04:44:46;;;;;;;4.37;3.10;;;15.40;99.90;;;;;;5092014;28;20232;-63
2023/06/06 04:47:19;;;;;;;3.83;3.37;;;15.40;99.90;;;;;;5092311;28;20201;-63
2023/06/06 04:49:47;;;;;;;3.77;2.93;;;15.50;99.90;;;;;;5092211;28;20204;-63
2023/06/06 04:52:15;;;;;;;4.77;3.70;;;15.90;99.90;;;;;;5091477;28;20242;-64
2023/06/06 04:54:43;;;;;;;3.97;2.83;;;16.40;99.90;;;;;;5091253;28;20228;-64
2023/06/06 04:57:15;;;;;;;5.55;2.92;;;17.50;99.90;;;;;;5091313;28;20227;-65
2023/06/06 04:59:44;;;;;;;3.40;3.10;;;18.90;99.90;;;;;;5091290;28;20328;-65
2023/06/06 05:02:11;;;;;;;3.92;3.17;;;20.50;99.90;;;;;;5091066;28;20633;-65
2023/06/06 05:04:40;;;;;;;5.72;3.20;;;22.00;99.90;;;;;;5091060;28;20688;-65
2023/06/06 05:07:08;;;;;;;7.30;3.50;;;23.10;99.90;;;;;;5095778;28;20204;-65
2023/06/06 05:09:36;;;;;;;5.72;3.22;;;24.20;99.90;;;;;;5095234;28;20291;-65
2023/06/06 05:12:02;;;;;;;6.20;3.30;;;25.00;99.90;;;;;;5095281;28;20303;-65
2023/06/06 05:14:29;;;;;;;6.57;2.70;;;25.60;97.10;;;;;;5095203;28;20538;-65
2023/06/06 05:16:57;;;;;;;3.90;2.53;;;26.10;95.20;;;;;;5094823;28;20219;-65
2023/06/06 05:19:24;;;;;;;3.42;2.60;;;26.90;93.30;;;;;;5095049;28;20626;-64
2023/06/06 05:21:52;;;;;;;3.15;2.85;;;27.60;91.60;;;;;;5095045;28;20208;-65
2023/06/06 05:24:19;;;;;;;6.25;2.53;;;28.10;88.40;;;;;;5095624;28;20207;-63
2023/06/06 05:26:45;;;;;;;4.00;2.53;;;28.40;86.00;;;;;;5095038;28;20277;-64
2023/06/06 05:29:12;;;;;;;4.10;2.38;;;29.10;84.10;;;;;;5094859;28;20219;-64
2023/06/06 05:31:39;;;;;;;3.83;2.88;;;29.70;79.80;;;;;;5095203;28;20208;-63
2023/06/06 05:34:05;;;;;;;7.32;2.67;;;29.90;77.40;;;;;;5095158;28;20212;-63
2023/06/06 05:36:32;;;;;;;4.10;2.80;;;29.70;75.80;;;;;;5094407;28;20307;-64
2023/06/06 05:39:00;;;;;;;4.03;2.88;;;30.00;75.40;;;;;;5094961;28;20735;-64
2023/06/06 05:41:27;;;;;;;3.55;2.75;;;30.40;73.50;;;;;;5095355;28;20243;-64
2023/06/06 05:43:54;;;;;;;3.67;2.83;;;31.20;71.00;;;;;;5095155;28;20311;-65
2023/06/06 05:46:21;;;;;;;4.18;2.70;;;31.80;67.90;;;;;;5094579;28;20224;-65
2023/06/06 05:48:47;;;;;;;6.32;5.38;;;32.20;66.00;;;;;;5094649;28;20735;-65
2023/06/06 05:51:15;;;;;;;3.70;2.78;;;31.70;66.20;;;;;;5094509;28;20204;-65
2023/06/06 05:53:44;;;;;;;3.17;2.88;;;31.10;67.30;;;;;;5094908;28;20208;-65
2023/06/06 05:56:12;;;;;;;3.13;2.20;;;31.70;65.80;;;;;;5094275;28;20228;-65
2023/06/06 05:58:40;;;;;;;2.75;2.30;;;32.60;62.90;;;;;;5094537;28;20261;-65
2023/06/06 06:01:08;;;;;;;4.15;2.85;;;33.40;61.00;;;;;;5094204;28;20254;-65
2023/06/06 06:03:35;;;;;;;5.35;2.50;;;33.80;59.30;;;;;;5093990;28;20275;-65
2023/06/06 06:06:04;;;;;;;3.63;2.60;;;34.00;58.30;;;;;;5094051;28;20294;-65
2023/06/06 06:08:34;;;;;;;4.63;2.60;;;34.20;57.80;;;;;;5094678;28;20268;-65
2023/06/06 06:11:01;;;;;;;2.80;2.35;;;34.20;57.20;;;;;;5094500;28;20582;-64
2023/06/06 06:13:29;;;;;;;2.58;2.33;;;34.00;57.00;;;;;;5094531;28;20224;-65
2023/06/06 06:15:56;;;;;;;3.80;2.70;;;34.40;56.10;;;;;;5093581;28;20689;-66
2023/06/06 06:18:23;;;;;;;3.17;2.35;;;35.00;55.00;;;;;;5093280;28;20295;-65
2023/06/06 06:20:50;;;;;;;4.13;2.65;;;35.20;54.60;;;;;;5094381;28;20212;-64
2023/06/06 06:23:17;;;;;;;3.85;2.50;;;35.60;53.80;;;;;;5094008;28;20257;-63
2023/06/06 06:25:44;;;;;;;2.63;2.42;;;35.90;53.10;;;;;;5093590;28;20233;-64
2023/06/06 06:28:19;;;;;;;4.90;2.55;;;35.50;53.40;;;;;;5093894;28;20200;-63
2023/06/06 06:30:48;;;;;;;4.82;2.40;;;35.20;53.60;;;;;;5093512;28;20662;-65
2023/06/06 06:33:15;;;;;;;2.80;2.50;;;35.50;52.60;;;;;;5093939;28;20636;-62
2023/06/06 06:35:42;;;;;;;3.25;2.60;;;34.70;53.90;;;;;;5093826;28;20255;-64
2023/06/06 06:38:09;;;;;;;3.20;2.53;;;34.40;55.20;;;;;;5093678;28;20228;-64
2023/06/06 06:40:36;;;;;;;4.43;2.60;;;34.70;54.00;;;;;;5093628;28;20210;-65
2023/06/06 06:43:03;;;;;;;3.60;2.80;;;34.00;54.80;;;;;;5093674;28;20254;-64
2023/06/06 06:45:30;;;;;;;4.50;3.00;;;34.40;54.30;;;;;;5093747;28;20315;-64
2023/06/06 06:47:59;;;;;;;4.30;3.00;;;35.20;53.20;;;;;;5093756;28;20287;-64
2023/06/06 06:50:26;;;;;;;3.13;2.53;;;36.10;51.50;;;;;;5093732;28;20215;-65
2023/06/06 06:52:55;;;;;;;3.00;2.60;;;36.80;51.10;;;;;;5093819;28;20236;-65
2023/06/06 06:55:23;;;;;;;4.70;2.92;;;37.10;49.80;;;;;;5093143;28;20287;-64
2023/06/06 06:57:51;;;;;;;3.47;2.70;;;36.50;50.70;;;;;;5092915;28;20247;-65
2023/06/06 07:00:22;;;;;;;2.40;2.20;;;35.00;52.00;;;;;;5093519;28;20261;-65
2023/06/06 07:02:49;;;;;;;2.90;2.60;;;33.80;53.70;;;;;;5093515;28;20211;-63
2023/06/06 07:05:18;;;;;;;5.97;2.80;;;34.60;52.70;;;;;;5093194;28;20228;-64
2023/06/06 07:07:47;;;;;;;3.88;2.55;;;35.60;50.80;;;;;;5092696;28;20211;-65
2023/06/06 07:10:15;;;;;;;4.40;2.53;;;36.30;49.70;;;;;;5093383;28;20228;-65
2023/06/06 07:12:42;;;;;;;4.53;3.30;;;36.50;49.30;;;;;;5093120;28;20243;-65
2023/06/06 07:15:09;;;;;;;3.08;2.60;;;36.90;48.90;;;;;;5105846;22;20584;-59
2023/06/06 07:17:36;;;;;;;3.33;2.80;;;37.20;48.30;;;;;;5082683;28;20292;-61
2023/06/06 07:20:05;;;;;;;2.60;2.40;;;37.40;47.70;;;;;;5093040;28;20218;-58
2023/06/06 07:22:35;;;;;;;2.75;2.30;;;37.80;47.70;;;;;;5092828;28;20759;-59
2023/06/06 07:25:03;;;;;;;3.15;2.38;;;38.20;46.70;;;;;;5092443;28;20235;-58
2023/06/06 07:27:33;;;;;;;3.28;2.30;;;38.60;45.70;;;;;;5092897;28;20206;-59
2023/06/06 07:30:00;;;;;;;4.00;2.28;;;38.80;45.80;;;;;;5091987;28;20208;-58
2023/06/06 07:32:27;;;;;;;2.80;2.05;;;38.20;46.10;;;;;;5092617;28;20635;-58
2023/06/06 07:34:55;;;;;;;2.47;2.25;;;38.30;46.40;;;;;;5092388;28;20583;-59
2023/06/06 07:37:21;;;;;;;3.08;2.70;;;38.80;44.70;;;;;;5092206;28;20230;-59
2023/06/06 07:39:50;;;;;;;4.00;2.20;;;38.90;42.90;;;;;;5092606;28;20579;-57
2023/06/06 07:42:17;;;;;;;2.78;1.95;;;38.50;41.60;;;;;;5092732;28;20204;-58
2023/06/06 07:44:43;;;;;;;3.95;2.30;;;37.80;42.20;;;;;;5092372;28;20209;-58
2023/06/06 07:47:10;;;;;;;3.60;1.92;;;36.70;43.00;;;;;;5092512;28;20210;-59
2023/06/06 07:49:37;;;;;;;3.13;2.20;;;35.70;44.30;;;;;;5092760;28;20211;-58
2023/06/06 07:52:04;;;;;;;3.03;2.30;;;34.90;45.40;;;;;;5092503;28;20215;-58
2023/06/06 07:54:31;;;;;;;3.03;2.25;;;34.40;45.80;;;;;;5092601;28;20207;-58
2023/06/06 07:56:59;;;;;;;3.92;2.38;;;34.30;46.10;;;;;;5092033;28;20231;-58
2023/06/06 07:59:27;;;;;;;2.58;2.10;;;34.10;46.00;;;;;;5092419;28;20265;-57
2023/06/06 08:01:54;;;;;;;2.78;2.13;;;34.10;45.40;;;;;;5092291;28;20669;-59
2023/06/06 08:04:20;;;;;;;5.20;2.35;;;34.10;45.60;;;;;;5092069;28;20204;-59
2023/06/06 08:06:47;;;;;;;3.92;2.13;;;34.20;45.10;;;;;;5091796;28;20227;-58
2023/06/06 08:09:14;;;;;;;2.63;2.15;;;34.00;44.90;;;;;;5092577;28;20390;-58
2023/06/06 08:11:41;;;;;;;4.10;1.88;;;33.80;45.10;;;;;;5091829;28;20644;-58
2023/06/06 08:14:09;;;;;;;6.85;2.22;;;33.70;45.30;;;;;;5091974;28;20215;-58
2023/06/06 08:16:37;;;;;;;3.10;2.10;;;33.30;46.10;;;;;;5091535;28;20321;-58
2023/06/06 08:19:04;;;;;;;2.67;2.28;;;33.30;46.00;;;;;;5092108;28;20247;-58
2023/06/06 08:21:31;;;;;;;2.72;2.35;;;33.60;46.00;;;;;;5091781;28;20665;-61
2023/06/06 08:23:57;;;;;;;2.53;2.05;;;33.90;45.90;;;;;;5092051;28;20204;-59
2023/06/06 08:26:25;;;;;;;4.00;2.28;;;34.30;45.40;;;;;;5091727;28;20228;-59
2023/06/06 08:28:52;;;;;;;2.60;2.40;;;34.70;44.50;;;;;;5091800;28;20204;-59
2023/06/06 08:31:20;;;;;;;4.22;2.20;;;34.90;44.40;;;;;;5092127;28;20231;-63
2023/06/06 08:33:48;;;;;;;2.60;2.40;;;34.70;44.40;;;;;;5092047;28;20212;-59
2023/06/06 08:36:14;;;;;;;2.67;2.10;;;34.50;44.80;;;;;;5091328;28;20273;-59
2023/06/06 08:38:41;;;;;;;2.80;2.35;;;34.40;45.40;;;;;;5091371;28;20224;-59
2023/06/06 08:41:10;;;;;;;2.58;2.38;;;34.60;45.30;;;;;;5091987;28;20212;-60
2023/06/06 08:43:40;;;;;;;3.03;2.42;;;34.60;45.10;;;;;;5091659;28;20215;-60
2023/06/06 08:46:07;;;;;;;4.03;2.35;;;34.20;45.30;;;;;;5091309;28;20228;-59
2023/06/06 08:48:37;;;;;;;3.17;2.33;;;33.10;46.70;;;;;;5091777;28;20208;-60
2023/06/06 08:51:05;;;;;;;4.00;2.40;;;32.20;48.40;;;;;;5092120;28;20204;-60
2023/06/06 08:53:32;;;;;;;4.68;2.90;;;31.20;49.40;;;;;;5092611;28;20254;-60
2023/06/06 08:55:58;;;;;;;4.40;2.90;;;30.20;51.70;;;;;;5092463;28;20227;-59
2023/06/06 08:58:26;;;;;;;2.90;2.58;;;29.10;53.50;;;;;;5091730;28;20224;-60
2023/06/06 09:00:53;;;;;;;3.78;2.53;;;28.20;54.80;;;;;;5091664;28;20204;-60
2023/06/06 09:03:20;;;;;;;4.32;2.83;;;27.50;56.20;;;;;;5091889;28;20200;-60
2023/06/06 09:05:51;;;;;;;3.40;2.90;;;26.80;58.30;;;;;;5091474;28;20266;-60
2023/06/06 09:08:19;;;;;;;3.47;2.30;;;26.20;59.70;;;;;;5091780;28;20572;-59
2023/06/06 09:10:46;;;;;;;4.38;2.70;;;25.70;60.50;;;;;;5091368;28;20689;-62
2023/06/06 09:13:13;;;;;;;3.90;2.88;;;25.50;61.00;;;;;;5091422;28;20708;-59
2023/06/06 09:15:39;;;;;;;4.13;3.22;;;25.30;62.60;;;;;;5090979;28;20602;-59
2023/06/06 09:18:07;;;;;;;3.22;2.92;;;25.20;63.20;;;;;;5091339;28;20231;-59
2023/06/06 09:20:34;;;;;;;4.88;2.83;;;25.10;63.20;;;;;;5091276;28;20215;-59
2023/06/06 09:23:03;;;;;;;19.98;13.85;;;25.10;63.60;;;;;;5091311;28;20208;-59
2023/06/06 09:25:31;;;;;;;3.22;2.75;;;25.10;63.90;;;;;;5091372;28;20281;-59
2023/06/06 09:28:01;;;;;;;3.10;2.80;;;25.20;64.00;;;;;;5091349;28;20203;-59
2023/06/06 09:30:30;;;;;;;5.20;2.92;;;25.40;64.20;;;;;;5091474;28;20566;-59
2023/06/06 09:32:58;;;;;;;4.70;3.05;;;25.30;64.60;;;;;;5091282;28;20204;-60
2023/06/06 09:35:25;;;;;;;4.15;3.25;;;25.20;64.60;;;;;;5091122;28;20314;-60
2023/06/06 09:37:53;;;;;;;4.13;2.78;;;25.10;65.00;;;;;;5090921;28;20220;-60
2023/06/06 09:40:23;;;;;;;5.18;3.08;;;25.30;65.20;;;;;;5091657;28;20464;-59
2023/06/06 09:42:51;;;;;;;3.38;3.00;;;25.40;64.60;;;;;;5091274;28;20204;-60
2023/06/06 09:45:19;;;;;;;3.65;2.65;;;25.50;65.60;;;;;;5091099;28;20542;-60
2023/06/06 09:47:47;;;;;;;5.45;2.75;;;25.50;65.90;;;;;;5090714;28;20579;-59
2023/06/06 09:50:15;;;;;;;3.35;2.90;;;25.40;65.30;;;;;;5091532;28;20229;-61
2023/06/06 09:52:42;;;;;;;7.38;3.15;;;25.40;66.00;;;;;;5083943;28;20212;-64
2023/06/06 09:55:10;;;;;;;5.28;2.85;;;25.50;65.90;;;;;;5075080;28;20232;-64
2023/06/06 09:57:40;;;;;;;3.95;2.83;;;25.60;65.50;;;;;;5075034;28;20312;-61
2023/06/06 10:00:10;;;;;;;4.03;2.65;;;25.70;65.70;;;;;;5074993;28;20204;-63
2023/06/06 10:02:42;;;;;;;4.43;2.60;;;25.90;64.10;;;;;;5074277;28;20205;-61
2023/06/06 10:05:10;;;;;;;3.33;2.85;;;25.90;64.00;;;;;;5074724;28;20732;-62
2023/06/06 10:07:40;;;;;;;4.18;2.75;;;25.90;64.60;;;;;;5074348;28;20205;-62
2023/06/06 10:10:08;;;;;;;4.63;3.53;;;25.90;64.50;;;;;;5074250;28;20215;-59
2023/06/06 10:12:36;;;;;;;5.70;4.55;;;25.90;63.30;;;;;;5074280;28;20205;-60
2023/06/06 10:15:06;;;;;;;3.58;2.70;;;26.00;62.70;;;;;;5073991;28;20260;-60
2023/06/06 10:17:36;;;;;;;4.50;2.78;;;26.10;62.50;;;;;;5073914;28;20286;-61
2023/06/06 10:20:06;;;;;;;5.75;2.70;;;26.00;62.30;;;;;;5074503;28;20239;-61
2023/06/06 10:22:33;;;;;;;5.65;2.75;;;26.20;62.60;;;;;;5073778;28;20204;-62
2023/06/06 10:25:00;;;;;;;5.78;3.00;;;26.50;62.00;;;;;;5073897;28;20302;-62
2023/06/06 10:27:39;;;;;;;3.03;2.72;;;26.60;61.20;;;;;;5073837;28;20212;-61
2023/06/06 10:30:16;;;;;;;4.90;2.75;;;26.80;61.40;;;;;;5073824;28;20228;-63
2023/06/06 10:32:51;;;;;;;7.50;3.20;;;26.90;61.30;;;;;;5074266;28;20216;-64
2023/06/06 10:35:20;;;;;;;5.57;2.50;;;26.90;60.80;;;;;;5073453;28;20674;-63
2023/06/06 10:38:02;;;;;;;3.67;2.60;;;27.10;61.10;;;;;;5073642;28;20578;-61
2023/06/06 10:40:41;;;;;;;3.90;2.85;;;27.30;60.70;;;;;;5074480;28;20659;-61
2023/06/06 10:43:08;;;;;;;4.85;3.13;;;27.60;59.90;;;;;;5074029;28;20213;-61
2023/06/06 10:45:46;;;;;;;5.78;2.80;;;27.80;58.90;;;;;;5073765;28;20232;-63
2023/06/06 10:48:13;;;;;;;3.90;2.70;;;27.80;56.70;;;;;;5073653;28;20204;-61
2023/06/06 10:50:52;;;;;;;5.07;2.88;;;27.70;58.20;;;;;;5073516;28;20350;-62
2023/06/06 10:53:20;;;;;;;4.20;3.20;;;27.50;58.70;;;;;;5073427;28;20232;-62
2023/06/06 10:55:47;;;;;;;5.72;2.78;;;27.30;58.60;;;;;;5073542;28;20728;-61
2023/06/06 10:58:24;;;;;;;6.18;2.72;;;27.20;58.20;;;;;;5073298;28;20251;-62
2023/06/06 11:01:00;;;;;;;3.95;3.00;;;27.00;58.40;;;;;;5073526;28;20219;-61
2023/06/06 11:03:36;;;;;;;4.63;2.92;;;26.90;59.00;;;;;;5072931;28;20303;-61
2023/06/06 11:06:08;;;;;;;3.15;2.85;;;27.00;58.40;;;;;;5073002;28;20706;-61
2023/06/06 11:08:36;;;;;;;3.30;2.53;;;27.10;58.90;;;;;;5073450;28;20197;-62
2023/06/06 11:11:27;;;;;;;3.60;2.90;;;27.30;57.60;;;;;;5072935;28;20208;-61
2023/06/06 11:13:58;;;;;;;2.90;2.60;;;27.60;57.20;;;;;;5072819;28;20201;-61
2023/06/06 11:16:59;;;;;;;3.50;2.67;;;27.80;55.70;;;;;;5072497;28;20241;-62
2023/06/06 11:19:33;;;;;;;4.63;2.70;;;27.70;57.20;;;;;;5072958;28;20224;-62
2023/06/06 11:22:01;;;;;;;6.32;2.80;;;27.40;57.20;;;;;;5072646;28;20205;-62
2023/06/06 11:24:33;;;;;;;2.75;2.53;;;27.20;57.70;;;;;;5072100;28;20213;-61
2023/06/06 11:27:00;;;;;;;4.65;2.80;;;27.20;58.10;;;;;;5072421;28;20601;-60
2023/06/06 11:29:28;;;;;;;5.43;2.95;;;27.30;56.70;;;;;;5072711;28;20201;-63
2023/06/06 11:31:56;;;;;;;3.88;2.50;;;27.50;57.00;;;;;;5073057;28;20209;-61
2023/06/06 11:34:22;;;;;;;2.83;2.45;;;27.70;55.90;;;;;;5072194;28;20588;-61
2023/06/06 11:36:52;;;;;;;3.28;2.33;;;27.70;53.30;;;;;;5071919;28;20228;-62
2023/06/06 11:39:21;;;;;;;6.38;2.80;;;27.50;54.50;;;;;;5073005;28;20222;-61
2023/06/06 11:41:49;;;;;;;4.13;2.67;;;27.00;55.80;;;;;;5072986;28;20205;-62
2023/06/06 11:44:17;;;;;;;6.70;2.72;;;27.00;56.30;;;;;;5072536;28;20645;-61
2023/06/06 11:46:48;;;;;;;4.05;2.55;;;27.00;56.50;;;;;;5072131;28;20229;-64
2023/06/06 11:49:16;;;;;;;3.40;2.67;;;27.10;58.50;;;;;;5072512;28;20254;-63
2023/06/06 11:51:43;;;;;;;3.35;2.67;;;26.90;58.50;;;;;;5072441;28;20205;-61
2023/06/06 11:54:15;;;;;;;3.72;2.90;;;26.90;59.20;;;;;;5072331;28;20216;-62
2023/06/06 11:56:42;;;;;;;3.60;2.45;;;26.90;59.40;;;;;;5071937;28;20224;-62
2023/06/06 11:59:09;;;;;;;3.47;2.30;;;27.10;58.40;;;;;;5071759;28;20225;-63
2023/06/06 12:01:36;;;;;;;4.85;2.55;;;27.10;56.70;;;;;;5071692;28;20205;-64
2023/06/06 12:04:06;;;;;;;4.65;2.67;;;27.10;55.30;;;;;;5071852;28;20201;-60
2023/06/06 12:06:35;;;;;;;4.13;2.60;;;27.10;54.90;;;;;;5072136;28;20286;-62
2023/06/06 12:09:03;;;;;;;6.07;2.85;;;27.10;55.10;;;;;;5072222;28;20209;-61
2023/06/06 12:11:31;;;;;;;2.92;2.53;;;27.10;55.50;;;;;;5072035;28;20236;-63
2023/06/06 12:14:02;;;;;;;4.72;2.35;;;27.30;54.50;;;;;;5074607;28;20201;-61
2023/06/06 12:16:29;;;;;;;4.60;2.90;;;27.30;55.20;;;;;;5071280;28;20876;-62
2023/06/06 12:18:56;;;;;;;5.85;2.60;;;27.10;55.30;;;;;;5067245;28;20225;-60
2023/06/06 12:21:23;;;;;;;3.55;2.47;;;27.10;55.80;;;;;;5071490;28;20197;-62
2023/06/06 12:23:51;;;;;;;3.33;2.50;;;27.10;55.70;;;;;;5071260;28;20217;-62
2023/06/06 12:26:18;;;;;;;4.13;2.72;;;27.00;55.40;;;;;;5071553;28;20225;-61
2023/06/06 12:28:56;;;;;;;5.30;2.47;;;27.10;55.40;;;;;;5071094;28;20258;-66
2023/06/06 12:31:23;;;;;;;5.97;2.40;;;27.30;54.70;;;;;;5072089;28;20291;-61
2023/06/06 12:33:50;;;;;;;3.10;2.45;;;27.40;55.20;;;;;;5071609;28;20594;-62
2023/06/06 12:36:19;;;;;;;3.00;2.30;;;27.70;53.80;;;;;;5070785;28;20228;-63
2023/06/06 12:39:04;;;;;;;4.95;2.65;;;27.70;53.30;;;;;;5070946;28;20236;-60
2023/06/06 12:41:39;;;;;;;4.60;2.42;;;27.70;54.60;;;;;;5071058;28;20213;-62
2023/06/06 12:44:08;;;;;;;3.00;2.40;;;27.90;55.10;;;;;;5071032;28;20224;-60
2023/06/06 12:46:35;;;;;;;2.90;2.53;;;27.80;55.40;;;;;;5071320;28;20311;-61
2023/06/06 12:49:02;;;;;;;4.43;2.45;;;27.60;55.30;;;;;;5070434;28;20209;-61
2023/06/06 12:51:29;;;;;;;3.22;2.30;;;27.50;54.60;;;;;;5071017;28;20208;-61
2023/06/06 12:53:55;;;;;;;3.35;2.50;;;27.50;55.20;;;;;;5070903;28;20216;-62